Pagina principale
METAR-TAF:

METAR-TAF

Aeroporti :

Barquisimeto, Venezuela

latitudine: 10-04N, longitudine: 069-19W, altezza: 613 m

METAR: mancante

Ora: 00:57 (04:57 UTC)

Previsione

Il bollettino è stato emesso 12 ore e 42 minuti fa, alle 16:15 UTC
Previsione valida dal 25 alle 18 UTC al 26 alle 18 UTC
Vento 10 kt da sud-est
Visibilità: 7000 m
Poco nuvoloso ad un'altezza di 1300 ft
Nuvoloso ad un'altezza di 6000 ft
Evoluzione graduale
dal 25 alle 22 UTC al 26 alle 00 UTC
Vento 8 kt da est
Visibilità: 2000 m
Cielo coperto ad un'altezza di 1300 ft
temporale, pioviggine,

TAF: SVBM 251615Z 2518/2618 14010KT 7000 VCTSH FEW013 BKN060 TX32/1800Z TN21/0800Z BECMG 2522/2600 10008KT 2000 TSDZ OVC013 CB

Osservazioni e previsioni meteorologiche di più di 4000 aeroporti (messaggi METAR e TAF).

Le stazioni disponibili sono rappresentate dai dischi gialli e rossi sulla carta.

Puntare il mouse per vedere il nome della stazione.

Clicca sopra per visualizzare le osservazioni e previsioni meteorologiche.

Per cambiare la mappa : fare clic sui pulsanti verdi con una croce nera per ingrandire, il pulsante verde con un trattino per diminuire, o sulla freccia verde per le mappe adiacenti.


METAR-TAF: